Terminal Aerodrome Forecast
Issued by NWS

Home | Current Version | Previous Version | Text Only | Print | Product List | Glossary On
Versions: 1 2 3 4 5 6 7 8 9 10 11 12 13
000
FTUS44 KEPZ 241738
TAFTCS
TAF
KTCS 241738Z 2418/2518 17008KT P6SM FEW100
     FM242000 21009G18KT P6SM SCT100
     FM250300 33008KT P6SM SCT060 SCT100
     FM251500 03008KT P6SM SCT100=

USA.gov is the U.S. government's official web portal to all federal, state and local government web resources and services.